Terminal Aerodrome Forecast
Issued by NWS

Home | Current Version | Previous Version | Text Only | Print | Product List | Glossary On
Versions: 1 2 3 4 5 6 7 8 9 10 11 12 13 14 15
000
FTUS45 KTFX 200524
TAFCTB

TAF
KCTB 200520Z 2006/2106 34010KT P6SM VCSH SCT060 BKN150
      TEMPO 2006/2009 -SHRA BKN050
     FM200900 33010KT P6SM SCT035 BKN100
      TEMPO 2016/2019 -SHRA BKN040
     FM201900 32006KT P6SM SCT020 BKN040
     FM202100 35008KT P6SM -SHRA BKN025=

USA.gov is the U.S. government's official web portal to all federal, state and local government web resources and services.